Time;durP1;ratioP1;P1;durP2;ratioP2;P2;SDS_P1;SDS_P2;PMS_P1;PMS_P2;Temp;Humidity;BMP_temperature;BMP_pressure;BME280_temperature;BME280_humidity;BME280_pressure;Samples;Min_cycle;Max_cycle;Signal;HPM_P1;HPM_P2
2023/12/31 00:02:54;;;;;;;4.53;2.37;;;;;;;0.31;100.00;97751.47;6240601;28;20208;-47
2023/12/31 00:05:56;;;;;;;1.90;1.70;;;;;;;0.24;100.00;97737.41;6237941;28;20315;-48
2023/12/31 00:08:58;;;;;;;4.07;2.97;;;;;;;0.27;100.00;97739.69;6230567;28;20601;-44
2023/12/31 00:12:00;;;;;;;3.10;2.20;;;;;;;0.26;100.00;97735.44;6240413;28;20196;-44
2023/12/31 00:15:04;;;;;;;3.23;2.47;;;;;;;0.20;100.00;97725.69;6228290;28;20283;-46
2023/12/31 00:18:06;;;;;;;2.23;1.90;;;;;;;0.15;100.00;97720.97;6235939;28;20192;-46
2023/12/31 00:21:08;;;;;;;5.43;2.27;;;;;;;0.15;100.00;97715.72;6244903;28;20196;-45
2023/12/31 00:24:10;;;;;;;2.93;2.20;;;;;;;0.12;100.00;97702.16;6253170;28;20597;-46
2023/12/31 00:27:12;;;;;;;2.03;1.70;;;;;;;0.22;100.00;97713.22;6245065;28;20195;-45
2023/12/31 00:30:14;;;;;;;3.53;2.00;;;;;;;0.15;100.00;97704.44;6244463;28;20215;-45
2023/12/31 00:33:16;;;;;;;1.93;1.73;;;;;;;0.16;100.00;97693.78;6244450;28;20200;-44
2023/12/31 00:36:19;;;;;;;4.73;2.43;;;;;;;0.21;100.00;97701.09;6230540;28;20601;-45
2023/12/31 00:39:21;;;;;;;3.27;2.30;;;;;;;0.24;100.00;97692.88;6253955;28;20196;-46
2023/12/31 00:42:23;;;;;;;2.83;2.10;;;;;;;0.24;100.00;97695.50;6247920;28;20199;-45
2023/12/31 00:45:25;;;;;;;3.40;2.47;;;;;;;0.12;100.00;97687.25;6245199;28;20821;-45
2023/12/31 00:48:27;;;;;;;2.67;2.43;;;;;;;0.03;100.00;97671.75;6255055;28;20279;-46
2023/12/31 00:51:29;;;;;;;2.23;2.03;;;;;;;0.22;100.00;97676.53;6229544;28;20227;-46
2023/12/31 00:54:32;;;;;;;5.10;2.43;;;;;;;0.16;100.00;97670.19;6254310;28;20202;-45
2023/12/31 00:57:33;;;;;;;4.20;2.40;;;;;;;0.16;100.00;97670.19;6224119;28;20289;-45
2023/12/31 01:00:35;;;;;;;2.70;2.10;;;;;;;0.07;100.00;97678.28;6255296;28;20195;-44
2023/12/31 01:03:38;;;;;;;6.77;2.00;;;;;;;0.04;100.00;97676.81;6233474;28;20660;-46
2023/12/31 01:06:40;;;;;;;5.00;2.07;;;;;;;0.12;100.00;97657.63;6247124;28;20262;-46
2023/12/31 01:09:42;;;;;;;3.87;2.27;;;;;;;0.07;100.00;97673.84;6251720;28;20226;-46
2023/12/31 01:12:44;;;;;;;2.77;2.40;;;;;;;0.03;100.00;97669.97;6242099;28;20188;-45
2023/12/31 01:15:46;;;;;;;2.43;2.23;;;;;;;0.07;100.00;97659.97;6251573;28;20697;-45
2023/12/31 01:18:48;;;;;;;3.43;1.73;;;;;;;0.00;100.00;97665.09;6226036;28;20698;-46
2023/12/31 01:21:50;;;;;;;3.23;2.17;;;;;;;-0.09;100.00;97663.50;6228837;28;20203;-46
2023/12/31 01:24:52;;;;;;;2.20;1.97;;;;;;;-0.12;100.00;97656.00;6246231;28;20254;-45
2023/12/31 01:27:55;;;;;;;2.53;1.83;;;;;;;-0.15;100.00;97653.72;6243917;28;20270;-45
2023/12/31 01:30:57;;;;;;;2.90;2.10;;;;;;;-0.13;100.00;97643.91;6244626;28;20245;-45
2023/12/31 01:33:59;;;;;;;4.33;2.10;;;;;;;-0.10;100.00;97649.63;6218843;28;20204;-45
2023/12/31 01:37:03;;;;;;;4.27;1.93;;;;;;;-0.12;100.00;97648.97;6241056;28;20200;-47
2023/12/31 01:40:06;;;;;;;3.00;2.33;;;;;;;-0.14;100.00;97642.28;6219587;28;20195;-49
2023/12/31 01:43:08;;;;;;;4.80;2.30;;;;;;;-0.19;100.00;97631.53;6243808;28;20333;-47
2023/12/31 01:46:12;;;;;;;3.23;2.40;;;;;;;-0.21;100.00;97625.63;6244481;28;20630;-47
2023/12/31 01:49:14;;;;;;;3.00;2.33;;;;;;;-0.10;100.00;97619.97;6217711;28;20861;-47
2023/12/31 01:52:18;;;;;;;4.90;2.80;;;;;;;-0.08;100.00;97608.34;6243544;28;20644;-46
2023/12/31 01:55:21;;;;;;;3.27;2.23;;;;;;;-0.19;100.00;97610.56;6233286;28;20551;-45
2023/12/31 01:58:23;;;;;;;3.57;2.63;;;;;;;-0.18;100.00;97620.88;6245306;28;20200;-47
2023/12/31 02:01:27;;;;;;;5.07;2.50;;;;;;;-0.12;100.00;97611.50;6236400;28;20193;-47
2023/12/31 02:04:34;;;;;;;7.67;2.90;;;;;;;-0.09;100.00;97608.53;6234868;28;20339;-47
2023/12/31 02:07:36;;;;;;;3.07;2.57;;;;;;;-0.06;100.00;97600.31;6234576;28;20252;-46
2023/12/31 02:10:38;;;;;;;2.97;2.30;;;;;;;-0.24;100.00;97584.13;6212307;28;20242;-46
2023/12/31 02:13:40;;;;;;;4.37;2.83;;;;;;;-0.11;100.00;97597.41;6237548;28;20199;-47
2023/12/31 02:16:42;;;;;;;3.70;2.43;;;;;;;-0.21;100.00;97589.78;6229107;28;20204;-45
2023/12/31 02:19:45;;;;;;;3.07;2.43;;;;;;;-0.20;100.00;97590.59;6220721;28;20200;-45
2023/12/31 02:22:47;;;;;;;4.77;2.50;;;;;;;-0.24;100.00;97589.34;6234513;28;20317;-45
2023/12/31 02:26:16;;;;;;;3.13;2.50;;;;;;;-0.20;100.00;97586.19;6236049;28;20223;-45
2023/12/31 02:29:19;;;;;;;3.80;2.33;;;;;;;-0.21;100.00;97583.75;6216830;28;20216;-46
2023/12/31 02:32:21;;;;;;;2.90;2.60;;;;;;;-0.31;100.00;97584.78;6246841;28;20233;-45
2023/12/31 02:35:23;;;;;;;3.03;2.70;;;;;;;-0.19;100.00;97581.78;6252846;28;20196;-46
2023/12/31 02:38:25;;;;;;;3.37;2.93;;;;;;;-0.30;100.00;97536.69;6243337;28;20738;-46
2023/12/31 02:41:27;;;;;;;4.20;2.97;;;;;;;-0.09;100.00;97566.63;6257477;28;20231;-45
2023/12/31 02:44:29;;;;;;;4.50;3.00;;;;;;;-0.38;100.00;97534.16;6245236;28;20208;-44
2023/12/31 02:47:31;;;;;;;3.17;2.80;;;;;;;-0.31;100.00;97566.47;6238386;28;20195;-46
2023/12/31 02:50:34;;;;;;;3.30;2.87;;;;;;;-0.39;100.00;97548.22;6250567;28;20202;-45
2023/12/31 02:53:36;;;;;;;3.33;2.73;;;;;;;-0.38;100.00;97552.47;6234181;28;20974;-44
2023/12/31 02:56:40;;;;;;;3.77;3.30;;;;;;;-0.38;100.00;97552.47;6234508;28;20290;-47
2023/12/31 02:59:42;;;;;;;3.87;3.37;;;;;;;-0.30;100.00;97544.53;6243754;28;20564;-46
2023/12/31 03:02:44;;;;;;;5.03;3.23;;;;;;;-0.21;100.00;97531.38;6237345;28;20206;-46
2023/12/31 03:05:46;;;;;;;6.57;2.80;;;;;;;-0.35;100.00;97530.34;6227758;28;20597;-46
2023/12/31 03:08:48;;;;;;;4.73;3.30;;;;;;;-0.41;100.00;97526.63;6237525;28;20234;-45
2023/12/31 03:11:53;;;;;;;4.23;3.03;;;;;;;-0.43;100.00;97523.41;6225359;28;20207;-46
2023/12/31 03:14:56;;;;;;;4.90;3.50;;;;;;;-0.49;100.00;97508.41;6226812;28;20204;-45
2023/12/31 03:17:58;;;;;;;4.23;3.20;;;;;;;-0.63;100.00;97507.38;6244340;28;20208;-46
2023/12/31 03:21:00;;;;;;;4.00;3.10;;;;;;;-0.66;100.00;97509.50;6237131;28;20184;-45
2023/12/31 03:24:03;;;;;;;7.80;3.90;;;;;;;-0.65;100.00;97511.13;6230097;28;20192;-44
2023/12/31 03:27:05;;;;;;;6.53;3.67;;;;;;;-0.68;100.00;97508.88;6242669;28;20402;-45
2023/12/31 03:30:08;;;;;;;6.30;3.60;;;;;;;-0.76;100.00;97501.91;6243664;28;20200;-44
2023/12/31 03:33:11;;;;;;;6.33;3.90;;;;;;;-0.75;100.00;97500.09;6225880;28;20562;-44
2023/12/31 03:36:13;;;;;;;6.10;4.10;;;;;;;-0.73;100.00;97490.28;6241905;28;20356;-45
2023/12/31 03:39:15;;;;;;;5.87;3.47;;;;;;;-0.89;100.00;97492.00;6225845;28;20806;-45
2023/12/31 03:42:18;;;;;;;5.40;3.60;;;;;;;-0.98;100.00;97498.31;6232182;28;20206;-45
2023/12/31 03:45:20;;;;;;;5.57;4.00;;;;;;;-0.97;100.00;97486.84;6244247;28;20286;-45
2023/12/31 03:48:23;;;;;;;9.63;4.33;;;;;;;-0.92;100.00;97484.53;6241427;28;20699;-47
2023/12/31 03:51:25;;;;;;;5.37;4.33;;;;;;;-0.94;100.00;97473.41;6244738;28;20191;-49
2023/12/31 03:54:27;;;;;;;6.13;3.80;;;;;;;-1.09;100.00;97481.19;6239722;28;20204;-46
2023/12/31 03:57:29;;;;;;;6.97;4.17;;;;;;;-1.14;100.00;97472.25;6235061;28;20224;-46
2023/12/31 04:00:31;;;;;;;5.53;4.60;;;;;;;-1.23;100.00;97466.28;6244321;28;20580;-47
2023/12/31 04:03:33;;;;;;;7.17;4.80;;;;;;;-1.10;100.00;97463.88;6236371;28;20290;-46
2023/12/31 04:06:35;;;;;;;6.53;4.80;;;;;;;-0.89;100.00;97459.81;6246752;28;20192;-46
2023/12/31 04:09:37;;;;;;;6.63;5.20;;;;;;;-1.07;100.00;97457.50;6234692;28;20703;-45
2023/12/31 04:12:39;;;;;;;8.50;5.20;;;;;;;-0.93;100.00;97456.75;6241014;28;20246;-46
2023/12/31 04:15:41;;;;;;;7.57;5.83;;;;;;;-0.84;100.00;97458.31;6240298;28;20185;-45
2023/12/31 04:18:43;;;;;;;7.97;5.70;;;;;;;-0.89;100.00;97450.16;6238531;28;20233;-46
2023/12/31 04:21:45;;;;;;;7.57;5.60;;;;;;;-0.95;100.00;97453.50;6225862;28;20247;-45
2023/12/31 04:24:47;;;;;;;8.60;5.60;;;;;;;-1.07;100.00;97445.25;6239360;28;20204;-45
2023/12/31 04:27:49;;;;;;;8.10;5.30;;;;;;;-1.02;100.00;97442.13;6235750;28;20203;-45
2023/12/31 04:30:52;;;;;;;7.53;5.60;;;;;;;-1.13;100.00;97442.53;6240193;28;20200;-44
2023/12/31 04:33:54;;;;;;;7.57;5.80;;;;;;;-1.16;100.00;97432.41;6239341;28;20564;-43
2023/12/31 04:36:56;;;;;;;8.57;6.83;;;;;;;-1.14;100.00;97433.84;6242645;28;20291;-44
2023/12/31 04:39:59;;;;;;;11.57;6.77;;;;;;;-1.19;100.00;97430.94;6236049;28;20469;-46
2023/12/31 04:43:03;;;;;;;10.63;6.50;;;;;;;-1.19;100.00;97427.50;6256505;28;20687;-44
2023/12/31 04:46:06;;;;;;;8.73;6.63;;;;;;;-1.26;100.00;97423.97;6251866;28;20215;-45
2023/12/31 04:49:08;;;;;;;9.30;5.77;;;;;;;-1.23;100.00;97426.22;6256437;28;20197;-45
2023/12/31 04:52:10;;;;;;;8.43;6.00;;;;;;;-1.27;100.00;97422.34;6250368;28;20198;-44
2023/12/31 04:55:12;;;;;;;8.80;6.20;;;;;;;-1.35;100.00;97410.16;6251930;28;20376;-45
2023/12/31 04:58:14;;;;;;;6.93;6.03;;;;;;;-1.42;100.00;97415.25;6248300;28;20238;-44
2023/12/31 05:01:17;;;;;;;11.30;6.47;;;;;;;-1.61;100.00;97382.56;6233037;28;20657;-45
2023/12/31 05:04:19;;;;;;;8.57;6.77;;;;;;;-1.44;100.00;97406.75;6253644;28;20576;-45
2023/12/31 05:07:21;;;;;;;9.03;6.70;;;;;;;-1.43;100.00;97405.81;6244867;28;20192;-45
2023/12/31 05:10:23;;;;;;;11.53;8.37;;;;;;;-1.40;100.00;97410.66;6254160;28;20724;-49
2023/12/31 05:13:25;;;;;;;14.17;10.33;;;;;;;-1.30;100.00;97406.03;6245139;28;20195;-45
2023/12/31 05:16:31;;;;;;;35.80;23.77;;;;;;;-0.52;100.00;97393.63;6249011;28;20195;-45
2023/12/31 05:19:34;;;;;;;50.17;29.57;;;;;;;-0.09;100.00;97388.59;6253664;28;20830;-45
2023/12/31 05:22:36;;;;;;;56.20;31.83;;;;;;;0.12;100.00;97390.47;6228039;28;20213;-46
2023/12/31 05:25:38;;;;;;;73.67;33.30;;;;;;;0.17;100.00;97383.69;6254473;28;20659;-44
2023/12/31 05:28:40;;;;;;;58.77;32.30;;;;;;;-0.01;100.00;97357.88;6241333;28;20813;-44
2023/12/31 05:31:42;;;;;;;66.80;31.37;;;;;;;0.19;100.00;97393.97;6248553;28;20207;-47
2023/12/31 05:34:45;;;;;;;76.90;33.53;;;;;;;0.17;100.00;97380.25;6245057;28;20274;-45
2023/12/31 05:37:47;;;;;;;51.20;28.80;;;;;;;-0.11;100.00;97330.38;6246026;28;20219;-46
2023/12/31 05:40:49;;;;;;;130.43;36.60;;;;;;;0.19;100.00;97371.22;6245708;28;20686;-45
2023/12/31 05:43:51;;;;;;;77.93;31.37;;;;;;;0.19;100.00;97371.22;6241246;28;20200;-46
2023/12/31 05:46:53;;;;;;;127.37;36.37;;;;;;;0.24;100.00;97368.03;6249734;28;20298;-46
2023/12/31 05:49:55;;;;;;;93.10;34.10;;;;;;;0.27;100.00;97364.25;6240007;28;20594;-45
2023/12/31 05:52:58;;;;;;;143.97;40.20;;;;;;;0.29;100.00;97363.06;6228210;28;20290;-46
2023/12/31 05:56:00;;;;;;;102.90;34.70;;;;;;;0.33;100.00;97348.59;6243733;28;20653;-48
2023/12/31 05:59:03;;;;;;;102.80;35.43;;;;;;;0.37;100.00;97351.66;6242568;28;20215;-49
2023/12/31 06:02:05;;;;;;;55.73;30.20;;;;;;;0.42;100.00;97346.69;6246278;28;20207;-49
2023/12/31 06:05:07;;;;;;;138.07;36.73;;;;;;;0.32;100.00;97314.75;6238117;28;20194;-47
2023/12/31 06:08:09;;;;;;;109.60;34.60;;;;;;;0.41;100.00;97326.72;6241607;28;20432;-47
2023/12/31 06:11:11;;;;;;;106.27;35.27;;;;;;;0.54;100.00;97339.13;6234977;28;20873;-49
2023/12/31 06:14:13;;;;;;;53.00;31.40;;;;;;;0.50;100.00;97334.28;6243776;28;20235;-46
2023/12/31 06:17:16;;;;;;;84.77;32.90;;;;;;;0.49;100.00;97326.59;6239900;28;20211;-46
2023/12/31 06:20:18;;;;;;;64.53;31.27;;;;;;;0.59;100.00;97340.22;6230820;28;20574;-45
2023/12/31 06:23:21;;;;;;;61.80;28.83;;;;;;;0.62;100.00;97331.97;6237256;28;20205;-49
2023/12/31 06:26:23;;;;;;;118.27;33.97;;;;;;;0.68;100.00;97346.94;6226879;28;20244;-46
2023/12/31 06:29:25;;;;;;;81.80;32.10;;;;;;;0.71;100.00;97328.22;6239358;28;20180;-45
2023/12/31 06:32:27;;;;;;;33.23;21.97;;;;;;;0.76;100.00;97330.28;6231150;28;20598;-47
2023/12/31 06:35:29;;;;;;;42.00;25.97;;;;;;;0.78;100.00;97328.28;6237122;28;20196;-47
2023/12/31 06:38:31;;;;;;;95.97;30.77;;;;;;;0.82;100.00;97331.34;6231971;28;20212;-48
2023/12/31 06:41:33;;;;;;;109.20;34.97;;;;;;;0.64;100.00;97295.91;6229137;28;20652;-46
2023/12/31 06:44:35;;;;;;;51.87;27.17;;;;;;;0.86;100.00;97325.53;6234433;28;20219;-46
2023/12/31 06:47:38;;;;;;;48.17;27.93;;;;;;;0.89;100.00;97316.50;6229548;28;20188;-46
2023/12/31 06:50:40;;;;;;;46.33;26.83;;;;;;;0.92;100.00;97305.59;6256662;28;20227;-46
2023/12/31 06:53:42;;;;;;;44.33;26.33;;;;;;;0.91;100.00;97304.81;6248152;28;20203;-47
2023/12/31 06:56:44;;;;;;;39.73;24.47;;;;;;;0.97;100.00;97303.22;6248116;28;20203;-47
2023/12/31 06:59:47;;;;;;;47.07;25.93;;;;;;;0.99;100.00;97309.91;6250225;28;20197;-46
2023/12/31 07:02:50;;;;;;;45.10;25.60;;;;;;;1.02;100.00;97311.34;6250713;28;20691;-46
2023/12/31 07:05:52;;;;;;;43.13;26.90;;;;;;;1.02;100.00;97309.53;6248086;28;20191;-47
2023/12/31 07:08:54;;;;;;;76.47;31.40;;;;;;;1.01;100.00;97313.16;6242100;28;20240;-47
2023/12/31 07:11:56;;;;;;;64.80;26.90;;;;;;;1.00;100.00;97308.91;6252034;28;20205;-47
2023/12/31 07:14:59;;;;;;;34.57;23.80;;;;;;;1.00;100.00;97302.84;6244732;28;20275;-45
2023/12/31 07:18:02;;;;;;;46.53;26.73;;;;;;;1.00;100.00;97305.47;6249575;28;20207;-48
2023/12/31 07:21:05;;;;;;;53.43;27.37;;;;;;;0.91;100.00;97298.75;6247613;28;20205;-46
2023/12/31 07:24:07;;;;;;;80.53;30.17;;;;;;;0.95;100.00;97298.19;6248709;28;20669;-44
2023/12/31 07:27:09;;;;;;;37.13;25.20;;;;;;;0.95;100.00;97298.19;6245415;28;20212;-46
2023/12/31 07:30:11;;;;;;;29.73;21.37;;;;;;;0.99;100.00;97293.38;6238650;28;20679;-46
2023/12/31 07:33:13;;;;;;;167.63;40.73;;;;;;;1.00;100.00;97300.25;6250435;28;20206;-46
2023/12/31 07:36:15;;;;;;;65.53;30.70;;;;;;;1.01;100.00;97286.91;6243079;28;20203;-48
2023/12/31 07:39:17;;;;;;;47.47;26.77;;;;;;;1.02;100.00;97282.47;6249830;28;20219;-46
2023/12/31 07:42:19;;;;;;;48.57;25.40;;;;;;;1.06;100.00;97277.69;6245914;28;20201;-48
2023/12/31 07:45:22;;;;;;;54.60;26.37;;;;;;;1.15;100.00;97293.06;6229257;28;20204;-46
2023/12/31 07:48:24;;;;;;;61.17;29.27;;;;;;;1.09;100.00;97283.34;6247383;28;20590;-47
2023/12/31 07:51:27;;;;;;;47.60;25.43;;;;;;;1.09;100.00;97275.50;6237382;28;20228;-45
2023/12/31 07:54:29;;;;;;;49.13;26.70;;;;;;;1.10;100.00;97274.47;6250902;28;20195;-46
2023/12/31 07:57:31;;;;;;;42.70;24.43;;;;;;;1.11;100.00;97265.59;6225928;28;20219;-47
2023/12/31 08:00:33;;;;;;;38.80;22.23;;;;;;;1.09;100.00;97253.69;6248534;28;20203;-46
2023/12/31 08:03:35;;;;;;;45.87;23.70;;;;;;;1.17;100.00;97262.19;6247189;28;20189;-47
2023/12/31 08:06:37;;;;;;;36.53;21.60;;;;;;;1.22;100.00;97280.00;6241859;28;20200;-47
2023/12/31 08:09:41;;;;;;;51.00;24.70;;;;;;;1.20;100.00;97287.25;6245146;28;20314;-45
2023/12/31 08:12:43;;;;;;;57.33;26.60;;;;;;;1.19;100.00;97283.81;6236553;28;20195;-46
2023/12/31 08:15:45;;;;;;;47.00;24.60;;;;;;;1.11;100.00;97264.78;6235120;28;20200;-45
2023/12/31 08:18:47;;;;;;;42.77;24.37;;;;;;;1.10;100.00;97261.38;6217610;28;20221;-46
2023/12/31 08:21:49;;;;;;;41.60;23.47;;;;;;;1.13;100.00;97260.16;6242513;28;20721;-45
2023/12/31 08:24:51;;;;;;;38.50;21.83;;;;;;;1.19;100.00;97267.28;6241410;28;20198;-48
2023/12/31 08:27:54;;;;;;;40.90;21.83;;;;;;;1.24;100.00;97263.06;6235550;28;20198;-45
2023/12/31 08:30:56;;;;;;;44.83;22.37;;;;;;;1.26;100.00;97262.88;6241691;28;20653;-46
2023/12/31 08:33:58;;;;;;;45.17;23.90;;;;;;;1.28;100.00;97256.44;6234907;28;20196;-46
2023/12/31 08:37:00;;;;;;;45.10;22.20;;;;;;;1.30;100.00;97266.72;6240857;28;20688;-46
2023/12/31 08:40:03;;;;;;;36.23;21.03;;;;;;;1.31;100.00;97276.22;6232272;28;20202;-48
2023/12/31 08:43:05;;;;;;;41.83;22.50;;;;;;;1.35;100.00;97281.91;6238742;28;20271;-47
2023/12/31 08:46:08;;;;;;;40.07;22.33;;;;;;;1.35;100.00;97271.41;6235255;28;20201;-48
2023/12/31 08:49:10;;;;;;;47.33;23.27;;;;;;;1.32;100.00;97261.28;6236895;28;20693;-48
2023/12/31 08:52:13;;;;;;;38.57;21.00;;;;;;;1.35;100.00;97274.03;6238822;28;20332;-47
2023/12/31 08:55:16;;;;;;;36.10;20.83;;;;;;;1.39;100.00;97265.56;6231067;28;20192;-47
2023/12/31 08:58:18;;;;;;;40.47;21.07;;;;;;;1.43;100.00;97271.22;6222142;28;20308;-46
2023/12/31 09:01:20;;;;;;;37.57;20.83;;;;;;;1.33;100.00;97244.53;6253746;28;20193;-47
2023/12/31 09:04:23;;;;;;;38.50;20.43;;;;;;;1.55;100.00;97267.06;6253761;28;20206;-47
2023/12/31 09:07:25;;;;;;;39.47;21.67;;;;;;;1.58;100.00;97258.81;6252281;28;20198;-46
2023/12/31 09:10:28;;;;;;;38.53;20.57;;;;;;;1.61;100.00;97253.16;6248790;28;20196;-48
2023/12/31 09:13:30;;;;;;;40.20;22.17;;;;;;;1.65;100.00;97253.59;6256552;28;20724;-46
2023/12/31 09:16:32;;;;;;;47.77;24.63;;;;;;;1.70;100.00;97241.47;6248129;28;20351;-47
2023/12/31 09:19:36;;;;;;;45.10;22.57;;;;;;;1.76;100.00;97240.69;6250993;28;20232;-47
2023/12/31 09:22:38;;;;;;;42.10;22.93;;;;;;;1.77;100.00;97239.72;6247327;28;20682;-47
2023/12/31 09:25:40;;;;;;;45.83;23.70;;;;;;;1.72;100.00;97236.84;6250797;28;20204;-48
2023/12/31 09:28:42;;;;;;;47.63;24.10;;;;;;;1.72;100.00;97231.59;6252637;28;20189;-48
2023/12/31 09:31:45;;;;;;;41.63;24.23;;;;;;;1.70;100.00;97230.19;6239381;28;20279;-46
2023/12/31 09:34:47;;;;;;;43.93;22.80;;;;;;;1.71;100.00;97224.72;6251634;28;20221;-46
2023/12/31 09:37:49;;;;;;;42.40;23.80;;;;;;;1.73;100.00;97224.53;6242361;28;20219;-45
2023/12/31 09:40:51;;;;;;;43.03;23.50;;;;;;;1.76;100.00;97235.44;6247278;28;20684;-45
2023/12/31 09:43:56;;;;;;;39.30;22.90;;;;;;;1.81;100.00;97235.66;6244133;28;20220;-46
2023/12/31 09:47:09;;;;;;;44.77;22.90;;;;;;;1.85;100.00;97224.78;6245465;28;20286;-46
2023/12/31 09:50:13;;;;;;;42.67;20.63;;;;;;;1.90;100.00;97230.25;6246858;28;20542;-45
2023/12/31 09:53:19;;;;;;;34.83;19.50;;;;;;;1.92;100.00;97231.69;6242765;28;20201;-46
2023/12/31 09:56:27;;;;;;;37.70;20.57;;;;;;;1.94;100.00;97229.66;6248004;28;20614;-50
2023/12/31 09:59:29;;;;;;;37.60;19.97;;;;;;;1.99;100.00;97219.34;6240018;28;20630;-46
2023/12/31 10:02:32;;;;;;;34.43;20.37;;;;;;;2.08;100.00;97214.72;6250319;28;20188;-46
2023/12/31 10:05:38;;;;;;;34.57;19.37;;;;;;;2.15;100.00;97212.09;6242721;28;20238;-49
2023/12/31 10:08:41;;;;;;;41.50;19.83;;;;;;;2.13;100.00;97211.50;6245241;28;20235;-48
2023/12/31 10:11:44;;;;;;;40.53;21.53;;;;;;;1.96;100.00;97190.84;6243734;28;20197;-45
2023/12/31 10:14:48;;;;;;;35.27;19.50;;;;;;;2.11;100.00;97206.44;6238090;28;20678;-49
2023/12/31 10:17:51;;;;;;;33.13;19.40;;;;;;;2.20;100.00;97215.75;6242746;28;20205;-46
2023/12/31 10:20:54;;;;;;;30.90;18.83;;;;;;;2.23;100.00;97204.84;6235627;28;20203;-48
2023/12/31 10:23:56;;;;;;;27.50;16.60;;;;;;;2.17;100.00;97203.03;6227185;28;20348;-48
2023/12/31 10:27:03;;;;;;;35.43;20.57;;;;;;;2.14;100.00;97210.50;6239095;28;20218;-47
2023/12/31 10:30:10;;;;;;;37.73;18.73;;;;;;;1.94;100.00;97169.25;6235991;28;20209;-46
2023/12/31 10:33:13;;;;;;;32.30;19.13;;;;;;;2.25;100.00;97207.28;6237741;28;20220;-46
2023/12/31 10:36:21;;;;;;;31.60;19.33;;;;;;;2.32;100.00;97198.41;6228532;28;20205;-46
2023/12/31 10:39:27;;;;;;;31.37;18.37;;;;;;;2.26;100.00;97201.00;6237970;28;20217;-45
2023/12/31 10:42:29;;;;;;;27.57;16.77;;;;;;;2.19;100.00;97202.81;6233221;28;20238;-48
2023/12/31 10:45:33;;;;;;;27.43;16.93;;;;;;;2.20;100.00;97199.19;6247576;28;20828;-47
2023/12/31 10:48:38;;;;;;;30.67;17.87;;;;;;;2.12;100.00;97194.94;6233586;28;20186;-44
2023/12/31 10:51:45;;;;;;;27.77;16.40;;;;;;;2.08;100.00;97195.53;6238442;28;20656;-47
2023/12/31 10:54:51;;;;;;;29.13;17.37;;;;;;;1.92;100.00;97162.53;6239883;28;21008;-47
2023/12/31 10:57:54;;;;;;;29.77;17.40;;;;;;;2.15;100.00;97181.38;6239201;28;20289;-47
2023/12/31 11:00:57;;;;;;;27.57;17.50;;;;;;;2.17;100.00;97181.19;6233933;28;20277;-48
2023/12/31 11:04:01;;;;;;;28.93;16.37;;;;;;;2.25;100.00;97178.38;6224525;28;20199;-46
2023/12/31 11:07:05;;;;;;;30.87;17.73;;;;;;;2.26;100.00;97167.63;6237330;28;20611;-46
2023/12/31 11:10:09;;;;;;;29.83;17.10;;;;;;;2.23;100.00;97169.88;6243878;28;20565;-47
2023/12/31 11:13:13;;;;;;;30.63;17.63;;;;;;;2.28;100.00;97160.38;6257454;28;20278;-47
2023/12/31 11:17:01;;;;;;;31.63;17.23;;;;;;;2.25;100.00;97152.88;6242629;28;20201;-46
2023/12/31 11:20:44;;;;;;;26.20;15.47;;;;;;;2.31;100.00;97143.38;6243692;28;20213;-48
2023/12/31 11:24:02;;;;;;;26.77;16.70;;;;;;;2.36;100.00;97129.63;6241592;28;20234;-48
2023/12/31 11:27:08;;;;;;;27.17;16.77;;;;;;;2.37;100.00;97121.56;6246487;28;20201;-45
2023/12/31 11:30:12;;;;;;;27.83;17.13;;;;;;;2.43;100.00;97115.50;6249287;28;20190;-47
2023/12/31 11:33:21;;;;;;;28.67;16.97;;;;;;;2.45;100.00;97116.09;6245059;28;20669;-45
2023/12/31 11:36:24;;;;;;;25.53;16.00;;;;;;;2.55;100.00;97105.97;6245678;28;20198;-46
2023/12/31 11:39:26;;;;;;;24.00;15.03;;;;;;;2.58;100.00;97095.03;6238862;28;20213;-45
2023/12/31 11:42:29;;;;;;;29.63;16.83;;;;;;;2.59;100.00;97086.13;6248834;28;20262;-48
2023/12/31 11:45:51;;;;;;;21.83;15.03;;;;;;;2.62;100.00;97074.41;6236582;28;20270;-46
2023/12/31 11:48:55;;;;;;;23.07;15.30;;;;;;;2.66;100.00;97074.78;6244775;28;20197;-46
2023/12/31 11:52:01;;;;;;;21.97;13.90;;;;;;;2.69;100.00;97054.16;6245542;28;20651;-47
2023/12/31 11:55:03;;;;;;;21.30;13.80;;;;;;;2.83;100.00;97060.19;6246552;28;20564;-46
2023/12/31 11:58:08;;;;;;;21.67;13.93;;;;;;;2.70;100.00;97034.72;6246112;28;20240;-48
2023/12/31 12:01:10;;;;;;;20.83;13.13;;;;;;;2.83;100.00;97061.00;6237401;28;20199;-46
2023/12/31 12:04:12;;;;;;;19.33;13.50;;;;;;;2.83;100.00;97047.84;6246031;28;20213;-48
2023/12/31 12:07:14;;;;;;;17.53;12.27;;;;;;;2.88;100.00;97038.53;6240502;28;20261;-48
2023/12/31 12:10:16;;;;;;;18.50;12.27;;;;;;;2.81;100.00;97020.16;6245523;28;20187;-48
2023/12/31 12:13:18;;;;;;;18.27;13.17;;;;;;;2.92;100.00;97029.19;6235074;28;20200;-46
2023/12/31 12:16:20;;;;;;;15.60;11.43;;;;;;;2.93;100.00;97025.53;6239934;28;20206;-46
2023/12/31 12:19:23;;;;;;;18.73;12.10;;;;;;;3.00;100.00;97034.19;6245957;28;20287;-47
2023/12/31 12:22:26;;;;;;;17.60;12.17;;;;;;;3.04;100.00;97030.13;6236194;28;20246;-47
2023/12/31 12:25:28;;;;;;;16.33;11.47;;;;;;;3.03;100.00;97029.34;6249931;28;20193;-49
2023/12/31 12:28:31;;;;;;;16.20;10.87;;;;;;;3.06;100.00;97028.13;6243799;28;20195;-46
2023/12/31 12:31:35;;;;;;;14.80;10.93;;;;;;;3.12;100.00;97023.84;6248387;28;20721;-47
2023/12/31 12:34:38;;;;;;;17.53;11.53;;;;;;;3.19;100.00;97025.41;6240821;28;20291;-48
2023/12/31 12:37:41;;;;;;;13.27;9.63;;;;;;;3.22;100.00;97027.63;6240680;28;20671;-47
2023/12/31 12:40:44;;;;;;;14.13;10.00;;;;;;;3.21;100.00;97027.84;6241405;28;20241;-47
2023/12/31 12:43:46;;;;;;;13.20;9.13;;;;;;;3.20;100.00;97032.31;6219425;28;20874;-48
2023/12/31 12:46:51;;;;;;;16.23;10.23;;;;;;;3.21;100.00;97027.84;6247002;28;20590;-48
2023/12/31 12:49:53;;;;;;;16.80;10.90;;;;;;;3.13;100.00;97026.25;6236382;28;20270;-49
2023/12/31 12:52:56;;;;;;;17.87;12.50;;;;;;;3.09;100.00;97020.59;6244295;28;20277;-49
2023/12/31 12:55:58;;;;;;;16.30;11.47;;;;;;;3.10;100.00;97024.03;6241530;28;20337;-47
2023/12/31 12:59:03;;;;;;;19.43;12.47;;;;;;;3.10;100.00;97029.28;6237172;28;20264;-48
2023/12/31 13:02:05;;;;;;;13.43;10.50;;;;;;;3.03;100.00;97013.56;6238746;28;20562;-46
2023/12/31 13:05:07;;;;;;;12.40;9.53;;;;;;;3.09;100.00;97022.44;6229010;28;20198;-47
2023/12/31 13:08:09;;;;;;;12.10;9.20;;;;;;;3.15;100.00;97026.84;6241861;28;20246;-47
2023/12/31 13:11:11;;;;;;;11.90;8.70;;;;;;;3.19;100.00;97033.31;6230450;28;20591;-48
2023/12/31 13:14:14;;;;;;;15.17;10.73;;;;;;;3.16;100.00;97030.31;6241044;28;20665;-46
2023/12/31 13:17:18;;;;;;;14.93;10.40;;;;;;;3.01;100.00;97027.94;6241086;28;20203;-46
2023/12/31 13:20:20;;;;;;;13.37;9.77;;;;;;;2.89;100.00;97025.16;6252282;28;20210;-48
2023/12/31 13:23:25;;;;;;;14.53;9.40;;;;;;;2.80;100.00;97019.31;6253243;28;20209;-51
2023/12/31 13:26:27;;;;;;;15.80;10.70;;;;;;;2.76;100.00;97012.88;6248143;28;20660;-48
2023/12/31 13:29:29;;;;;;;14.53;9.73;;;;;;;2.75;100.00;97015.69;6255364;28;20723;-48
2023/12/31 13:32:31;;;;;;;13.00;9.83;;;;;;;2.76;100.00;97012.88;6247495;28;20289;-47
2023/12/31 13:35:33;;;;;;;12.87;9.60;;;;;;;2.79;100.00;97007.19;6253382;28;20190;-49
2023/12/31 13:38:35;;;;;;;16.10;9.67;;;;;;;2.81;100.00;97002.53;6240279;28;20263;-48
2023/12/31 13:41:38;;;;;;;13.30;9.23;;;;;;;2.79;100.00;96996.66;6248033;28;20203;-48
2023/12/31 13:44:40;;;;;;;12.90;9.10;;;;;;;2.72;100.00;96980.13;6249869;28;20204;-48
2023/12/31 13:47:42;;;;;;;13.83;9.50;;;;;;;2.90;100.00;96994.38;6225380;28;20209;-47
2023/12/31 13:50:44;;;;;;;12.50;9.50;;;;;;;2.93;100.00;96997.41;6253565;28;20659;-49
2023/12/31 13:53:46;;;;;;;12.83;9.27;;;;;;;2.97;100.00;97001.25;6246493;28;20197;-45
2023/12/31 13:56:51;;;;;;;13.87;9.70;;;;;;;3.02;100.00;96990.09;6249876;28;20273;-47
2023/12/31 13:59:54;;;;;;;13.33;9.10;;;;;;;3.03;100.00;96994.31;6248169;28;20307;-48
2023/12/31 14:03:01;;;;;;;15.03;10.50;;;;;;;2.99;100.00;96987.88;6251052;28;20201;-46
2023/12/31 14:06:09;;;;;;;13.13;10.17;;;;;;;2.97;100.00;96979.38;6244892;28;20192;-46
2023/12/31 14:09:11;;;;;;;12.47;9.07;;;;;;;2.78;100.00;96952.97;6238435;28;20788;-46